Time;durP1;ratioP1;P1;durP2;ratioP2;P2;SDS_P1;SDS_P2;PMS_P1;PMS_P2;Temp;Humidity;BMP_temperature;BMP_pressure;BME280_temperature;BME280_humidity;BME280_pressure;Samples;Min_cycle;Max_cycle;Signal;HPM_P1;HPM_P2
2022/01/08 00:01:48;;;;;;;34.13;26.10;;;;;;;;;;5051615;28;20419;-58
2022/01/08 00:04:13;;;;;;;44.10;28.50;;;;;;;;;;5060965;28;20648;-58
2022/01/08 00:06:38;;;;;;;36.38;27.20;;;;;;;;;;5071031;28;20454;-58
2022/01/08 00:09:04;;;;;;;34.90;25.30;;;;;;;;;;5070108;28;20086;-58
2022/01/08 00:11:29;;;;;;;36.50;28.57;;;;;;;;;;5064101;28;20048;-58
2022/01/08 00:13:54;;;;;;;37.42;29.23;;;;;;;;;;5051753;28;20431;-58
2022/01/08 00:16:19;;;;;;;27.20;24.33;;;;;;;;;;5071758;28;20024;-58
2022/01/08 00:18:45;;;;;;;29.83;23.25;;;;;;;;;;5069782;28;20459;-58
2022/01/08 00:21:10;;;;;;;32.87;24.33;;;;;;;;;;5055706;28;20021;-60
2022/01/08 00:23:35;;;;;;;29.48;24.13;;;;;;;;;;5051450;28;20428;-60
2022/01/08 00:26:00;;;;;;;34.95;25.75;;;;;;;;;;5051985;28;20419;-59
2022/01/08 00:28:26;;;;;;;32.05;25.35;;;;;;;;;;5071013;28;20017;-59
2022/01/08 00:30:51;;;;;;;35.33;24.67;;;;;;;;;;5056853;28;20029;-60
2022/01/08 00:33:17;;;;;;;59.88;31.80;;;;;;;;;;5054723;28;20024;-60
2022/01/08 00:35:42;;;;;;;44.30;29.10;;;;;;;;;;5069126;28;20143;-60
2022/01/08 00:38:07;;;;;;;43.22;30.73;;;;;;;;;;5070824;28;20415;-60
2022/01/08 00:40:32;;;;;;;53.30;32.60;;;;;;;;;;5063060;28;20047;-60
2022/01/08 00:42:57;;;;;;;47.13;36.42;;;;;;;;;;5070612;28;20482;-58
2022/01/08 00:45:23;;;;;;;51.08;37.45;;;;;;;;;;5069512;28;20033;-59
2022/01/08 00:47:48;;;;;;;46.20;35.13;;;;;;;;;;5070408;28;20179;-59
2022/01/08 00:50:13;;;;;;;53.67;33.72;;;;;;;;;;5057094;28;20633;-58
2022/01/08 00:52:39;;;;;;;54.88;33.90;;;;;;;;;;5070689;28;20017;-59
2022/01/08 00:55:04;;;;;;;50.17;36.47;;;;;;;;;;5069542;28;20055;-58
2022/01/08 00:57:30;;;;;;;57.03;36.40;;;;;;;;;;5070483;28;20025;-58
2022/01/08 00:59:55;;;;;;;55.53;35.50;;;;;;;;;;5064858;28;20499;-58
2022/01/08 01:02:20;;;;;;;46.65;35.60;;;;;;;;;;5050532;28;20369;-58
2022/01/08 01:04:45;;;;;;;48.70;36.03;;;;;;;;;;5048513;28;20376;-58
2022/01/08 01:07:10;;;;;;;47.13;34.22;;;;;;;;;;5057685;28;20031;-59
2022/01/08 01:09:35;;;;;;;50.70;34.30;;;;;;;;;;5067435;28;20032;-58
2022/01/08 01:12:00;;;;;;;54.90;36.92;;;;;;;;;;5050254;28;20503;-59
2022/01/08 01:14:26;;;;;;;50.88;34.58;;;;;;;;;;5049171;28;20033;-59
2022/01/08 01:16:51;;;;;;;53.97;35.67;;;;;;;;;;5050484;28;20421;-59
2022/01/08 01:19:17;;;;;;;52.67;37.53;;;;;;;;;;5048936;28;20048;-59
2022/01/08 01:21:42;;;;;;;55.13;37.95;;;;;;;;;;5063880;28;20045;-58
2022/01/08 01:24:16;;;;;;;52.05;35.20;;;;;;;;;;5049037;28;20403;-58
2022/01/08 01:26:54;;;;;;;49.17;36.45;;;;;;;;;;5049704;28;20060;-58
2022/01/08 01:29:35;;;;;;;55.80;35.58;;;;;;;;;;5049163;28;20033;-58
2022/01/08 01:43:20;;;;;;;38.33;30.25;;;;;;;;;;5070079;28;20120;-58
2022/01/08 01:48:26;;;;;;;48.80;30.40;;;;;;;;;;5038698;28;20032;-58
2022/01/08 01:50:51;;;;;;;47.33;33.42;;;;;;;;;;5056495;28;20043;-58
2022/01/08 01:53:16;;;;;;;42.63;30.97;;;;;;;;;;5050483;28;20453;-58
2022/01/08 01:55:42;;;;;;;46.13;33.25;;;;;;;;;;5048596;28;20462;-58
2022/01/08 01:58:07;;;;;;;46.45;33.83;;;;;;;;;;5059593;28;20099;-58
2022/01/08 02:00:33;;;;;;;51.67;36.83;;;;;;;;;;5059615;28;20069;-58
2022/01/08 02:02:59;;;;;;;47.58;34.78;;;;;;;;;;5049837;28;20075;-58
2022/01/08 02:05:24;;;;;;;48.47;34.72;;;;;;;;;;5061448;28;20052;-58
2022/01/08 02:07:49;;;;;;;56.60;38.15;;;;;;;;;;5049688;28;20059;-58
2022/01/08 02:10:14;;;;;;;53.30;37.80;;;;;;;;;;5054428;28;20064;-58
2022/01/08 02:12:39;;;;;;;47.67;32.07;;;;;;;;;;5069385;28;20419;-58
2022/01/08 02:15:05;;;;;;;53.30;35.15;;;;;;;;;;5066928;28;20068;-58
2022/01/08 02:17:30;;;;;;;54.65;34.00;;;;;;;;;;5057410;28;20017;-58
2022/01/08 02:19:56;;;;;;;48.90;33.80;;;;;;;;;;5054807;28;20518;-58
2022/01/08 02:22:21;;;;;;;64.03;42.47;;;;;;;;;;5073297;28;20443;-58
2022/01/08 02:24:46;;;;;;;66.45;40.67;;;;;;;;;;5071976;28;20474;-57
2022/01/08 02:27:12;;;;;;;74.45;46.65;;;;;;;;;;5071524;28;20017;-58
2022/01/08 02:29:37;;;;;;;72.35;45.83;;;;;;;;;;5070719;28;20029;-58
2022/01/08 02:32:06;;;;;;;72.15;44.10;;;;;;;;;;5064182;28;20028;-58
2022/01/08 02:34:32;;;;;;;53.08;39.95;;;;;;;;;;5070635;28;20040;-58
2022/01/08 02:36:58;;;;;;;67.00;44.55;;;;;;;;;;5053617;28;20372;-58
2022/01/08 02:39:23;;;;;;;50.95;36.70;;;;;;;;;;5051960;28;20102;-58
2022/01/08 02:41:53;;;;;;;50.92;36.75;;;;;;;;;;5070619;28;20480;-58
2022/01/08 02:44:18;;;;;;;51.17;36.40;;;;;;;;;;5072095;28;20037;-58
2022/01/08 02:46:44;;;;;;;51.47;38.67;;;;;;;;;;5063884;28;20048;-58
2022/01/08 02:49:09;;;;;;;57.75;37.25;;;;;;;;;;5051488;28;20049;-58
2022/01/08 02:51:35;;;;;;;52.47;36.42;;;;;;;;;;5068560;28;20468;-58
2022/01/08 02:54:01;;;;;;;51.33;35.97;;;;;;;;;;5062209;28;20036;-58
2022/01/08 02:56:26;;;;;;;62.70;38.08;;;;;;;;;;5052671;28;20039;-58
2022/01/08 02:58:52;;;;;;;67.43;42.85;;;;;;;;;;5051493;28;20039;-58
2022/01/08 03:01:17;;;;;;;75.37;47.40;;;;;;;;;;5061684;28;20024;-58
2022/01/08 03:03:42;;;;;;;73.95;45.90;;;;;;;;;;5057116;28;20489;-58
2022/01/08 03:06:07;;;;;;;79.82;50.97;;;;;;;;;;5072799;28;20047;-58
2022/01/08 03:08:32;;;;;;;65.93;48.90;;;;;;;;;;5072655;28;20032;-59
2022/01/08 03:10:57;;;;;;;80.50;52.47;;;;;;;;;;5059896;28;20068;-59
2022/01/08 03:13:22;;;;;;;73.78;51.25;;;;;;;;;;5052983;28;20020;-59
2022/01/08 03:15:48;;;;;;;65.40;46.55;;;;;;;;;;5051515;28;20783;-59
2022/01/08 03:18:13;;;;;;;67.90;45.53;;;;;;;;;;5071921;28;20024;-59
2022/01/08 03:20:46;;;;;;;61.35;45.47;;;;;;;;;;5058324;28;20459;-59
2022/01/08 03:23:16;;;;;;;61.35;42.20;;;;;;;;;;5056101;28;20049;-59
2022/01/08 03:25:42;;;;;;;65.00;42.57;;;;;;;;;;5050184;28;20052;-59
2022/01/08 03:28:07;;;;;;;62.17;40.97;;;;;;;;;;5062733;28;20021;-59
2022/01/08 03:30:34;;;;;;;64.78;42.08;;;;;;;;;;5060603;28;20095;-59
2022/01/08 03:32:59;;;;;;;60.05;43.72;;;;;;;;;;5071906;28;20467;-59
2022/01/08 03:35:24;;;;;;;60.00;41.37;;;;;;;;;;5070559;28;20042;-59
2022/01/08 03:37:49;;;;;;;65.20;42.63;;;;;;;;;;5072410;28;20431;-59
2022/01/08 03:40:15;;;;;;;56.63;40.65;;;;;;;;;;5057556;28;20040;-59
2022/01/08 03:42:40;;;;;;;56.63;44.05;;;;;;;;;;5071847;28;20103;-59
2022/01/08 03:45:06;;;;;;;58.65;40.42;;;;;;;;;;5068919;28;20044;-59
2022/01/08 03:47:53;;;;;;;63.67;41.55;;;;;;;;;;5070811;28;20017;-59
2022/01/08 03:50:16;;;;;;;63.55;43.80;;;;;;;;;;5066189;28;20029;-59
2022/01/08 03:52:41;;;;;;;65.22;41.67;;;;;;;;;;5051906;28;20081;-59
2022/01/08 03:55:07;;;;;;;56.10;42.43;;;;;;;;;;5053471;28;20037;-59
2022/01/08 03:57:32;;;;;;;64.30;42.78;;;;;;;;;;5071665;28;21053;-59
2022/01/08 03:59:57;;;;;;;54.23;42.47;;;;;;;;;;5055719;28;20041;-59
2022/01/08 04:02:22;;;;;;;81.67;45.43;;;;;;;;;;5071344;28;20957;-59
2022/01/08 04:04:48;;;;;;;67.47;48.75;;;;;;;;;;5059214;28;20444;-59
2022/01/08 04:07:13;;;;;;;71.45;47.70;;;;;;;;;;5051837;28;20426;-59
2022/01/08 04:09:38;;;;;;;58.30;43.92;;;;;;;;;;5049661;28;20025;-59
2022/01/08 04:12:05;;;;;;;70.07;48.50;;;;;;;;;;5070246;28;20021;-59
2022/01/08 04:14:41;;;;;;;69.90;50.33;;;;;;;;;;5069615;28;21069;-59
2022/01/08 04:17:07;;;;;;;74.35;49.83;;;;;;;;;;5069403;28;20074;-59
2022/01/08 04:19:32;;;;;;;74.88;49.17;;;;;;;;;;5069759;28;20067;-59
2022/01/08 04:22:09;;;;;;;68.32;46.97;;;;;;;;;;5053787;28;20441;-59
2022/01/08 04:24:34;;;;;;;73.47;48.78;;;;;;;;;;5052560;28;20243;-59
2022/01/08 04:26:59;;;;;;;69.60;47.23;;;;;;;;;;5070793;28;20045;-59
2022/01/08 04:29:25;;;;;;;85.30;47.63;;;;;;;;;;5069562;28;20446;-59
2022/01/08 04:31:50;;;;;;;76.93;51.00;;;;;;;;;;5054447;28;20021;-60
2022/01/08 04:34:15;;;;;;;79.53;50.50;;;;;;;;;;5049875;28;20044;-60
2022/01/08 04:36:40;;;;;;;91.78;51.38;;;;;;;;;;5051011;28;20036;-59
2022/01/08 04:39:05;;;;;;;83.97;53.70;;;;;;;;;;5048704;28;20153;-59
2022/01/08 04:41:30;;;;;;;80.80;52.33;;;;;;;;;;5064000;28;20031;-59
2022/01/08 04:43:56;;;;;;;82.00;53.70;;;;;;;;;;5069625;28;20490;-59
2022/01/08 04:46:21;;;;;;;79.67;51.33;;;;;;;;;;5070470;28;20021;-59
2022/01/08 04:48:46;;;;;;;77.07;49.70;;;;;;;;;;5069154;28;20419;-58
2022/01/08 04:51:11;;;;;;;80.15;52.40;;;;;;;;;;5060213;28;20016;-58
2022/01/08 04:53:36;;;;;;;76.70;50.08;;;;;;;;;;5064066;28;20016;-59
2022/01/08 04:56:02;;;;;;;66.57;46.70;;;;;;;;;;5060424;28;20033;-59
2022/01/08 04:58:28;;;;;;;62.53;43.95;;;;;;;;;;5050971;28;20021;-59
2022/01/08 05:00:53;;;;;;;57.78;40.22;;;;;;;;;;5056266;28;20119;-59
2022/01/08 05:03:18;;;;;;;55.25;41.53;;;;;;;;;;5060572;28;20092;-59
2022/01/08 05:05:43;;;;;;;61.40;44.20;;;;;;;;;;5048328;28;20067;-59
2022/01/08 05:08:08;;;;;;;64.95;41.28;;;;;;;;;;5052880;28;20444;-59
2022/01/08 05:10:34;;;;;;;55.33;41.83;;;;;;;;;;5051229;28;20097;-60
2022/01/08 05:13:03;;;;;;;49.40;39.08;;;;;;;;;;5050435;28;20396;-59
2022/01/08 05:15:28;;;;;;;59.42;40.65;;;;;;;;;;5048611;28;20121;-59
2022/01/08 05:17:55;;;;;;;51.45;40.28;;;;;;;;;;5049921;28;20028;-60
2022/01/08 05:20:20;;;;;;;55.83;40.28;;;;;;;;;;5047026;28;20048;-60
2022/01/08 05:25:20;;;;;;;69.70;39.67;;;;;;;;;;5049084;28;20400;-59
2022/01/08 05:27:46;;;;;;;59.38;43.25;;;;;;;;;;5049564;28;20082;-59
2022/01/08 05:30:12;;;;;;;63.65;43.00;;;;;;;;;;5048599;28;20032;-59
2022/01/08 05:32:38;;;;;;;58.67;42.33;;;;;;;;;;5047389;28;20479;-59
2022/01/08 05:35:03;;;;;;;62.35;42.55;;;;;;;;;;5040454;28;20025;-56
2022/01/08 05:37:28;;;;;;;60.38;41.42;;;;;;;;;;5047464;28;20125;-57
2022/01/08 05:39:54;;;;;;;53.28;39.35;;;;;;;;;;5044978;28;20036;-57
2022/01/08 05:42:19;;;;;;;53.45;39.75;;;;;;;;;;5048459;28;20052;-57
2022/01/08 05:44:44;;;;;;;61.40;39.27;;;;;;;;;;5050425;28;20147;-57
2022/01/08 05:47:10;;;;;;;79.57;38.80;;;;;;;;;;5049300;28;20451;-57
2022/01/08 05:49:35;;;;;;;60.65;38.45;;;;;;;;;;5050592;28;21013;-57
2022/01/08 05:52:00;;;;;;;54.17;37.80;;;;;;;;;;5050895;28;20088;-57
2022/01/08 05:54:25;;;;;;;52.83;36.57;;;;;;;;;;5052081;28;20492;-56
2022/01/08 05:56:51;;;;;;;55.38;35.13;;;;;;;;;;5055124;28;20496;-56
2022/01/08 05:59:16;;;;;;;50.90;38.42;;;;;;;;;;5051250;28;20043;-56
2022/01/08 06:01:41;;;;;;;58.72;39.75;;;;;;;;;;5064474;28;20039;-57
2022/01/08 06:04:07;;;;;;;51.10;37.70;;;;;;;;;;5067728;28;20044;-57
2022/01/08 06:06:32;;;;;;;49.30;35.53;;;;;;;;;;5054183;28;20957;-57
2022/01/08 06:08:57;;;;;;;64.13;41.20;;;;;;;;;;5054812;28;20021;-57
2022/01/08 06:11:22;;;;;;;50.40;38.67;;;;;;;;;;5054476;28;20021;-57
2022/01/08 06:13:48;;;;;;;51.85;37.35;;;;;;;;;;5054977;28;20103;-56
2022/01/08 06:16:13;;;;;;;64.18;37.67;;;;;;;;;;5072568;28;20100;-57
2022/01/08 06:18:38;;;;;;;48.15;35.83;;;;;;;;;;5072886;28;20120;-57
2022/01/08 06:21:04;;;;;;;51.45;36.20;;;;;;;;;;5051520;28;20076;-56
2022/01/08 06:23:29;;;;;;;47.95;35.97;;;;;;;;;;5065870;28;20016;-57
2022/01/08 06:25:54;;;;;;;50.20;37.00;;;;;;;;;;5071591;28;20052;-57
2022/01/08 06:28:19;;;;;;;49.50;34.83;;;;;;;;;;5072984;28;20027;-57
2022/01/08 06:30:45;;;;;;;45.03;36.35;;;;;;;;;;5052393;28;20140;-57
2022/01/08 06:33:10;;;;;;;56.00;34.40;;;;;;;;;;5057265;28;20495;-57
2022/01/08 06:35:35;;;;;;;51.33;36.45;;;;;;;;;;5070571;28;20037;-57
2022/01/08 06:38:00;;;;;;;48.67;36.00;;;;;;;;;;5055245;28;20024;-57
2022/01/08 06:40:25;;;;;;;48.80;34.08;;;;;;;;;;5065919;28;20097;-57
2022/01/08 06:42:51;;;;;;;47.70;36.88;;;;;;;;;;5065828;28;20029;-57
2022/01/08 06:45:16;;;;;;;54.37;36.87;;;;;;;;;;5049901;28;20496;-57
2022/01/08 06:47:45;;;;;;;56.40;38.47;;;;;;;;;;5046642;28;20479;-57
2022/01/08 06:50:10;;;;;;;47.88;35.22;;;;;;;;;;5050672;28;20037;-57
2022/01/08 06:52:35;;;;;;;44.17;36.53;;;;;;;;;;5031540;28;20075;-57
2022/01/08 06:55:01;;;;;;;54.17;38.47;;;;;;;;;;5048707;28;20484;-57
2022/01/08 06:57:26;;;;;;;70.23;38.93;;;;;;;;;;5052860;28;20419;-57
2022/01/08 06:59:51;;;;;;;54.43;36.57;;;;;;;;;;5064384;28;20471;-57
2022/01/08 07:02:16;;;;;;;66.25;39.88;;;;;;;;;;5061622;28;20435;-57
2022/01/08 07:04:41;;;;;;;45.57;36.50;;;;;;;;;;5050885;28;20043;-57
2022/01/08 07:07:06;;;;;;;51.17;36.20;;;;;;;;;;5052187;28;20455;-57
2022/01/08 07:09:31;;;;;;;45.73;31.03;;;;;;;;;;5063185;28;20260;-57
2022/01/08 07:11:57;;;;;;;43.85;34.53;;;;;;;;;;5072369;28;20447;-57
2022/01/08 07:14:22;;;;;;;52.00;33.87;;;;;;;;;;5070628;28;20407;-57
2022/01/08 07:16:48;;;;;;;46.28;34.22;;;;;;;;;;5071086;28;20461;-57
2022/01/08 07:19:13;;;;;;;53.67;34.25;;;;;;;;;;5057624;28;20106;-57
2022/01/08 07:21:39;;;;;;;53.78;35.17;;;;;;;;;;5052408;28;20032;-57
2022/01/08 07:24:04;;;;;;;52.17;33.47;;;;;;;;;;5051570;28;20044;-57
2022/01/08 07:26:29;;;;;;;48.42;34.45;;;;;;;;;;5070434;28;20403;-56
2022/01/08 07:28:54;;;;;;;53.67;37.03;;;;;;;;;;5060360;28;20361;-56
2022/01/08 07:31:19;;;;;;;52.72;37.63;;;;;;;;;;5049644;28;20041;-56
2022/01/08 07:33:49;;;;;;;46.00;36.42;;;;;;;;;;5067914;28;20021;-57
2022/01/08 07:36:14;;;;;;;55.28;34.70;;;;;;;;;;5070708;28;20380;-57
2022/01/08 07:38:39;;;;;;;52.07;33.93;;;;;;;;;;5061555;28;20032;-54
2022/01/08 07:41:04;;;;;;;51.42;34.20;;;;;;;;;;5069436;28;20103;-56
2022/01/08 07:43:30;;;;;;;45.43;34.63;;;;;;;;;;5069958;28;20031;-56
2022/01/08 07:45:55;;;;;;;53.33;35.17;;;;;;;;;;5062935;28;20579;-57
2022/01/08 07:48:20;;;;;;;55.92;34.67;;;;;;;;;;5058740;28;20434;-57
2022/01/08 07:50:45;;;;;;;46.97;30.70;;;;;;;;;;5048080;28;20557;-56
2022/01/08 07:53:10;;;;;;;51.40;35.17;;;;;;;;;;5047880;28;20009;-56
2022/01/08 07:55:35;;;;;;;50.10;34.20;;;;;;;;;;5048403;28;20455;-56
2022/01/08 07:58:00;;;;;;;49.63;34.30;;;;;;;;;;5054109;28;20404;-56
2022/01/08 08:00:26;;;;;;;57.17;39.08;;;;;;;;;;5060592;28;20520;-57
2022/01/08 08:02:51;;;;;;;68.77;37.80;;;;;;;;;;5070269;28;20028;-56
2022/01/08 08:05:16;;;;;;;60.00;36.38;;;;;;;;;;5069458;28;20482;-56
2022/01/08 08:07:41;;;;;;;68.07;37.88;;;;;;;;;;5061950;28;20025;-56
2022/01/08 08:10:08;;;;;;;59.25;36.22;;;;;;;;;;5051743;28;20051;-56
2022/01/08 08:12:33;;;;;;;54.90;36.83;;;;;;;;;;5054770;28;20032;-56
2022/01/08 08:14:58;;;;;;;59.55;36.92;;;;;;;;;;5049385;28;20041;-56
2022/01/08 08:17:24;;;;;;;49.20;33.20;;;;;;;;;;5051924;28;20029;-56
2022/01/08 08:19:49;;;;;;;59.47;36.20;;;;;;;;;;5065806;28;20050;-56
2022/01/08 08:22:14;;;;;;;54.28;35.85;;;;;;;;;;5070804;28;20035;-56
2022/01/08 08:24:40;;;;;;;53.95;37.28;;;;;;;;;;5069347;28;20128;-56
2022/01/08 08:27:05;;;;;;;64.85;35.55;;;;;;;;;;5068710;28;20086;-56
2022/01/08 08:29:30;;;;;;;50.30;36.17;;;;;;;;;;5048867;28;20492;-56
2022/01/08 08:31:55;;;;;;;52.13;37.00;;;;;;;;;;5051044;28;20025;-56
2022/01/08 08:34:20;;;;;;;57.33;35.97;;;;;;;;;;5068284;28;20450;-56
2022/01/08 08:36:45;;;;;;;56.15;39.15;;;;;;;;;;5070185;28;20471;-56
2022/01/08 08:39:11;;;;;;;54.07;37.30;;;;;;;;;;5057678;28;20060;-56
2022/01/08 08:41:36;;;;;;;56.73;37.63;;;;;;;;;;5050559;28;20447;-56
2022/01/08 08:44:01;;;;;;;53.17;38.37;;;;;;;;;;5049233;28;20787;-56
2022/01/08 08:46:26;;;;;;;60.22;40.95;;;;;;;;;;5051328;28;20179;-56
2022/01/08 08:48:53;;;;;;;47.72;36.30;;;;;;;;;;5064642;28;20088;-56
2022/01/08 08:51:18;;;;;;;50.10;34.53;;;;;;;;;;5070583;28;20021;-56
2022/01/08 08:53:43;;;;;;;54.05;33.63;;;;;;;;;;5056701;28;20555;-56
2022/01/08 08:56:08;;;;;;;43.42;31.98;;;;;;;;;;5050535;28;20024;-56
2022/01/08 08:58:33;;;;;;;37.77;31.07;;;;;;;;;;5063271;28;20024;-56
2022/01/08 09:00:58;;;;;;;53.95;30.02;;;;;;;;;;5068984;28;20582;-56
2022/01/08 09:03:24;;;;;;;44.30;31.23;;;;;;;;;;5070482;28;20059;-56
2022/01/08 09:05:49;;;;;;;44.20;29.80;;;;;;;;;;5068451;28;20569;-56
2022/01/08 09:08:14;;;;;;;45.38;32.83;;;;;;;;;;5059105;28;20432;-56
2022/01/08 09:10:39;;;;;;;66.65;34.13;;;;;;;;;;5053754;28;20056;-56
2022/01/08 09:13:04;;;;;;;52.80;33.50;;;;;;;;;;5069977;28;20020;-56
2022/01/08 09:15:29;;;;;;;44.85;32.55;;;;;;;;;;5066705;28;20048;-56
2022/01/08 09:17:59;;;;;;;46.47;31.70;;;;;;;;;;5061363;28;20025;-56
2022/01/08 09:20:25;;;;;;;48.35;32.75;;;;;;;;;;5048722;28;20467;-56
2022/01/08 09:22:50;;;;;;;45.80;32.38;;;;;;;;;;5053298;28;20025;-56
2022/01/08 09:25:16;;;;;;;39.10;30.10;;;;;;;;;;5048064;28;20128;-56
2022/01/08 09:27:41;;;;;;;39.97;32.40;;;;;;;;;;5058772;28;20031;-56
2022/01/08 09:30:06;;;;;;;39.73;30.77;;;;;;;;;;5066823;28;20039;-56
2022/01/08 09:32:32;;;;;;;56.40;33.63;;;;;;;;;;5053254;28;20028;-56
2022/01/08 09:34:57;;;;;;;49.03;31.45;;;;;;;;;;5048197;28;20479;-57
2022/01/08 09:37:22;;;;;;;42.38;30.23;;;;;;;;;;5052118;28;20017;-57
2022/01/08 09:39:48;;;;;;;44.92;32.35;;;;;;;;;;5067775;28;20147;-56
2022/01/08 09:42:13;;;;;;;53.03;33.47;;;;;;;;;;5069733;28;20387;-57
2022/01/08 09:44:42;;;;;;;49.65;33.00;;;;;;;;;;5050937;28;20041;-56
2022/01/08 09:47:07;;;;;;;46.05;33.10;;;;;;;;;;5052256;28;20036;-56
2022/01/08 09:49:32;;;;;;;39.30;30.03;;;;;;;;;;5067068;28;20033;-56
2022/01/08 09:51:58;;;;;;;40.03;29.15;;;;;;;;;;5053080;28;20946;-56
2022/01/08 09:54:24;;;;;;;45.30;33.35;;;;;;;;;;5048330;28;20158;-56
2022/01/08 09:56:49;;;;;;;47.22;33.67;;;;;;;;;;5049741;28;20100;-56
2022/01/08 09:59:15;;;;;;;39.33;32.10;;;;;;;;;;5049256;28;20132;-56
2022/01/08 10:01:40;;;;;;;38.92;29.88;;;;;;;;;;5049585;28;20029;-56
2022/01/08 10:04:06;;;;;;;43.03;28.77;;;;;;;;;;5048428;28;20041;-56
2022/01/08 10:06:32;;;;;;;43.22;31.65;;;;;;;;;;5049306;28;20021;-56
2022/01/08 10:08:58;;;;;;;44.85;30.70;;;;;;;;;;5054473;28;20024;-56
2022/01/08 10:11:23;;;;;;;44.03;32.10;;;;;;;;;;5049422;28;20021;-56
2022/01/08 10:13:59;;;;;;;40.70;31.27;;;;;;;;;;5063653;28;20400;-56
2022/01/08 10:19:18;;;;;;;42.97;30.25;;;;;;;;;;5031477;28;20186;-56
2022/01/08 10:21:44;;;;;;;54.83;35.60;;;;;;;;;;5062103;28;20025;-56
2022/01/08 10:24:09;;;;;;;46.95;34.80;;;;;;;;;;5068190;28;20060;-56
2022/01/08 10:26:36;;;;;;;56.83;36.38;;;;;;;;;;5068871;28;20072;-56
2022/01/08 10:29:02;;;;;;;45.55;34.83;;;;;;;;;;5048765;28;20040;-56
2022/01/08 10:31:32;;;;;;;44.50;35.67;;;;;;;;;;5050313;28;20017;-56
2022/01/08 10:33:57;;;;;;;49.88;36.65;;;;;;;;;;5047918;28;20434;-56
2022/01/08 10:36:27;;;;;;;65.53;39.58;;;;;;;;;;5049473;28;20416;-56
2022/01/08 10:38:54;;;;;;;55.85;37.75;;;;;;;;;;5064251;28;20082;-55
2022/01/08 10:41:20;;;;;;;54.40;38.50;;;;;;;;;;5051969;28;20017;-56
2022/01/08 10:43:46;;;;;;;53.53;38.17;;;;;;;;;;5049889;28;20021;-56
2022/01/08 10:46:12;;;;;;;56.67;40.38;;;;;;;;;;5052672;28;20353;-56
2022/01/08 10:48:41;;;;;;;57.85;41.33;;;;;;;;;;5058735;28;20386;-56
2022/01/08 10:51:11;;;;;;;52.67;37.00;;;;;;;;;;5070965;28;20029;-56
2022/01/08 10:53:53;;;;;;;57.80;41.55;;;;;;;;;;5072509;28;20032;-56
2022/01/08 10:56:22;;;;;;;55.88;40.45;;;;;;;;;;5066343;28;20048;-56
2022/01/08 10:58:52;;;;;;;;;;;;;;;;;;5053177;28;20053;-56
2022/01/08 11:01:34;;;;;;;51.15;36.72;;;;;;;;;;5052782;28;20193;-56
2022/01/08 11:03:59;;;;;;;54.55;34.15;;;;;;;;;;5070862;28;20020;-56
2022/01/08 11:06:24;;;;;;;51.33;32.53;;;;;;;;;;5072293;28;20078;-56
2022/01/08 11:09:00;;;;;;;56.33;31.77;;;;;;;;;;5053677;28;20028;-56
2022/01/08 11:11:29;;;;;;;54.90;32.10;;;;;;;;;;5052342;28;20027;-56
2022/01/08 11:13:55;;;;;;;44.15;32.15;;;;;;;;;;5050486;28;20021;-56
2022/01/08 11:16:20;;;;;;;42.85;32.40;;;;;;;;;;5052674;28;20372;-56
2022/01/08 11:18:45;;;;;;;72.05;31.52;;;;;;;;;;5050374;28;20036;-57
2022/01/08 11:21:10;;;;;;;42.40;30.63;;;;;;;;;;5071248;28;20044;-56
2022/01/08 11:23:36;;;;;;;46.83;31.30;;;;;;;;;;5071878;28;20035;-56
2022/01/08 11:26:01;;;;;;;44.80;31.70;;;;;;;;;;5065772;28;20479;-56
2022/01/08 11:28:34;;;;;;;50.22;35.00;;;;;;;;;;5064541;28;20096;-56
2022/01/08 11:31:01;;;;;;;64.28;36.70;;;;;;;;;;5070597;28;20039;-56
2022/01/08 11:33:33;;;;;;;45.67;34.30;;;;;;;;;;5070513;28;20093;-56
2022/01/08 11:35:58;;;;;;;62.58;38.85;;;;;;;;;;5030656;28;20068;-56
2022/01/08 11:38:26;;;;;;;61.47;42.25;;;;;;;;;;5058063;28;20613;-56
2022/01/08 11:40:52;;;;;;;60.33;38.88;;;;;;;;;;5070012;28;20032;-56
2022/01/08 11:43:19;;;;;;;60.67;40.40;;;;;;;;;;5071937;28;20055;-55
2022/01/08 11:45:47;;;;;;;56.88;38.80;;;;;;;;;;5070033;28;20037;-56
2022/01/08 11:48:13;;;;;;;61.63;38.75;;;;;;;;;;5059961;28;20088;-56
2022/01/08 11:50:38;;;;;;;62.55;41.90;;;;;;;;;;5050026;28;20056;-56
2022/01/08 11:53:20;;;;;;;54.77;39.80;;;;;;;;;;5061822;28;20036;-56
2022/01/08 11:55:46;;;;;;;55.92;39.80;;;;;;;;;;5069551;28;20884;-56
2022/01/08 11:58:13;;;;;;;53.28;38.58;;;;;;;;;;5071194;28;20085;-56
2022/01/08 12:01:05;;;;;;;52.25;37.42;;;;;;;;;;5053233;28;20087;-56
2022/01/08 12:03:33;;;;;;;59.47;34.70;;;;;;;;;;5049598;28;20049;-56
2022/01/08 12:06:18;;;;;;;38.03;27.33;;;;;;;;;;5050043;28;20094;-56
2022/01/08 12:11:46;;;;;;;55.35;35.22;;;;;;;;;;5061150;28;20029;-56
2022/01/08 12:14:12;;;;;;;62.77;37.80;;;;;;;;;;5050292;28;20048;-56
2022/01/08 12:16:38;;;;;;;53.50;38.20;;;;;;;;;;5051519;28;20419;-56
2022/01/08 12:19:04;;;;;;;54.97;36.17;;;;;;;;;;5049757;28;20029;-56
2022/01/08 12:21:30;;;;;;;54.60;36.17;;;;;;;;;;5064457;28;20028;-57
2022/01/08 12:23:59;;;;;;;51.13;33.67;;;;;;;;;;5069968;28;20016;-56
2022/01/08 12:26:24;;;;;;;59.58;36.80;;;;;;;;;;5030821;28;20436;-56
2022/01/08 12:28:56;;;;;;;51.67;33.00;;;;;;;;;;5041094;28;20037;-56
2022/01/08 12:31:42;;;;;;;41.55;30.70;;;;;;;;;;5051193;28;20017;-56
2022/01/08 12:34:27;;;;;;;45.30;31.90;;;;;;;;;;5049722;28;20044;-56
2022/01/08 12:36:57;;;;;;;43.38;30.83;;;;;;;;;;5059733;28;20032;-56
2022/01/08 12:39:23;;;;;;;47.47;32.33;;;;;;;;;;5069839;28;20039;-56
2022/01/08 12:41:48;;;;;;;53.13;29.08;;;;;;;;;;5050595;28;20388;-56
2022/01/08 12:44:39;;;;;;;37.50;28.80;;;;;;;;;;5049490;28;20047;-56
2022/01/08 12:47:05;;;;;;;39.83;25.75;;;;;;;;;;5047573;28;20051;-56
2022/01/08 12:49:30;;;;;;;40.83;30.97;;;;;;;;;;5050310;28;20025;-56
2022/01/08 12:51:57;;;;;;;37.78;23.98;;;;;;;;;;5062370;28;20387;-56
2022/01/08 12:54:23;;;;;;;45.85;34.33;;;;;;;;;;5029600;28;20094;-56
2022/01/08 12:56:50;;;;;;;37.83;27.10;;;;;;;;;;5030500;28;20100;-55
2022/01/08 12:59:15;;;;;;;50.42;30.08;;;;;;;;;;5029349;28;20075;-56
2022/01/08 13:01:44;;;;;;;44.10;28.77;;;;;;;;;;5030337;28;20136;-56
2022/01/08 13:04:15;;;;;;;39.25;29.33;;;;;;;;;;5029104;28;20040;-56
2022/01/08 13:06:41;;;;;;;38.78;25.58;;;;;;;;;;5064733;28;20031;-55
2022/01/08 13:09:08;;;;;;;38.10;25.75;;;;;;;;;;5068999;28;20040;-56
2022/01/08 13:11:34;;;;;;;41.10;27.55;;;;;;;;;;5070354;28;20027;-56
2022/01/08 13:14:06;;;;;;;62.58;27.30;;;;;;;;;;5063854;28;20009;-56
2022/01/08 13:16:33;;;;;;;33.28;25.20;;;;;;;;;;5043181;28;20022;-56
2022/01/08 13:19:03;;;;;;;38.83;22.00;;;;;;;;;;5054706;28;20016;-56
2022/01/08 13:21:30;;;;;;;38.95;24.33;;;;;;;;;;5070655;28;20016;-56
2022/01/08 13:23:56;;;;;;;35.03;23.33;;;;;;;;;;5050001;28;20368;-55
2022/01/08 13:26:29;;;;;;;31.23;20.52;;;;;;;;;;5049755;28;20045;-56
2022/01/08 13:28:54;;;;;;;32.22;19.00;;;;;;;;;;5049171;28;20017;-56
2022/01/08 13:31:19;;;;;;;27.15;21.17;;;;;;;;;;5050434;28;20024;-56
2022/01/08 13:33:54;;;;;;;24.00;18.47;;;;;;;;;;5061076;28;20029;-56
2022/01/08 13:36:20;;;;;;;26.27;17.25;;;;;;;;;;5068990;28;21027;-56
2022/01/08 13:38:45;;;;;;;22.50;13.95;;;;;;;;;;5068640;28;20108;-55
2022/01/08 13:41:11;;;;;;;26.67;17.07;;;;;;;;;;5070326;28;20035;-56
2022/01/08 13:43:52;;;;;;;22.90;14.73;;;;;;;;;;5070240;28;20818;-56
2022/01/08 13:46:17;;;;;;;17.73;13.63;;;;;;;;;;5061314;28;20045;-56
2022/01/08 13:48:42;;;;;;;16.58;12.57;;;;;;;;;;5058134;28;20426;-55
2022/01/08 13:51:09;;;;;;;22.65;11.98;;;;;;;;;;5070204;28;20017;-55
2022/01/08 13:53:34;;;;;;;18.83;13.85;;;;;;;;;;5070216;28;20016;-56
2022/01/08 13:55:59;;;;;;;21.03;12.67;;;;;;;;;;5068552;28;20033;-56
2022/01/08 13:58:29;;;;;;;19.92;14.57;;;;;;;;;;5064320;28;20466;-56
2022/01/08 14:01:03;;;;;;;17.23;11.45;;;;;;;;;;5060454;28;20048;-56
2022/01/08 14:03:29;;;;;;;14.60;12.73;;;;;;;;;;5050119;28;20020;-56
2022/01/08 14:05:56;;;;;;;23.33;14.23;;;;;;;;;;5048138;28;20470;-56
2022/01/08 14:08:21;;;;;;;26.73;12.23;;;;;;;;;;5048147;28;20060;-56
2022/01/08 14:10:47;;;;;;;14.23;10.52;;;;;;;;;;5046148;28;20068;-55
2022/01/08 14:13:12;;;;;;;15.40;10.90;;;;;;;;;;5052119;28;20014;-55
2022/01/08 14:15:39;;;;;;;19.15;9.85;;;;;;;;;;5050519;28;20045;-56
2022/01/08 14:18:08;;;;;;;12.40;10.30;;;;;;;;;;5051886;28;20040;-56
2022/01/08 14:20:33;;;;;;;15.25;9.15;;;;;;;;;;5052665;28;20041;-56
2022/01/08 14:23:15;;;;;;;15.02;10.10;;;;;;;;;;5053466;28;20441;-56
2022/01/08 14:25:40;;;;;;;17.25;11.30;;;;;;;;;;5051507;28;20052;-55
2022/01/08 14:28:16;;;;;;;13.68;10.55;;;;;;;;;;5053917;28;20021;-56
2022/01/08 14:30:41;;;;;;;32.10;14.93;;;;;;;;;;5051581;28;20086;-55
2022/01/08 14:33:06;;;;;;;14.33;9.63;;;;;;;;;;5053559;28;20009;-56
2022/01/08 14:35:31;;;;;;;17.10;7.90;;;;;;;;;;5051888;28;20962;-55
2022/01/08 14:38:00;;;;;;;14.93;8.53;;;;;;;;;;5053614;28;20423;-56